createdAt,value
2023-03-05T00:00:49.645Z,7.28
2023-03-05T00:03:17.276Z,6.76
2023-03-05T00:05:46.270Z,6.88
2023-03-05T00:08:13.908Z,8.05
2023-03-05T00:10:41.578Z,6.28
2023-03-05T00:13:09.284Z,5.85
2023-03-05T00:15:41.430Z,5.60
2023-03-05T00:18:09.093Z,6.43
2023-03-05T00:20:36.720Z,5.25
2023-03-05T00:23:05.833Z,5.83
2023-03-05T00:25:33.514Z,6.05
2023-03-05T00:28:01.110Z,4.96
2023-03-05T00:30:28.851Z,5.76
2023-03-05T00:32:56.452Z,5.08
2023-03-05T00:35:24.132Z,5.20
2023-03-05T00:37:51.782Z,4.84
2023-03-05T00:40:21.228Z,6.02
2023-03-05T00:42:48.843Z,4.96
2023-03-05T00:45:16.562Z,5.91
2023-03-05T00:47:44.190Z,6.19
2023-03-05T00:50:12.350Z,5.90
2023-03-05T00:52:40.003Z,5.88
2023-03-05T00:55:07.927Z,6.35
2023-03-05T00:57:36.940Z,6.29
2023-03-05T01:00:04.986Z,6.06
2023-03-05T01:02:34.478Z,5.18
2023-03-05T01:05:02.505Z,5.99
2023-03-05T01:07:30.177Z,6.26
2023-03-05T01:09:57.791Z,6.81
2023-03-05T01:12:25.501Z,5.90
2023-03-05T01:14:54.511Z,5.89
2023-03-05T01:17:22.259Z,5.44
2023-03-05T01:19:49.954Z,5.78
2023-03-05T01:22:17.569Z,6.01
2023-03-05T01:24:45.193Z,5.24
2023-03-05T01:27:12.884Z,4.66
2023-03-05T01:29:40.557Z,4.92
2023-03-05T01:32:09.628Z,5.74
2023-03-05T01:34:37.481Z,5.17
2023-03-05T01:37:05.138Z,6.05
2023-03-05T01:39:32.754Z,5.36
2023-03-05T01:42:00.372Z,4.77
2023-03-05T01:44:28.831Z,6.14
2023-03-05T01:46:56.519Z,5.63
2023-03-05T01:49:26.140Z,5.75
2023-03-05T01:51:56.476Z,5.89
2023-03-05T01:54:26.281Z,5.15
2023-03-05T01:56:54.168Z,5.82
2023-03-05T01:59:21.828Z,5.48
2023-03-05T02:01:49.864Z,5.24
2023-03-05T02:04:18.459Z,5.78
2023-03-05T02:06:47.679Z,4.36
2023-03-05T02:09:15.304Z,5.50
2023-03-05T02:11:42.885Z,4.97
2023-03-05T02:14:10.549Z,4.97
2023-03-05T02:16:38.376Z,4.94
2023-03-05T02:19:06.271Z,5.41
2023-03-05T02:21:38.775Z,5.35
2023-03-05T02:24:06.935Z,6.28
2023-03-05T02:26:34.961Z,5.67
2023-03-05T02:29:04.138Z,5.37
2023-03-05T02:31:32.089Z,4.79
2023-03-05T02:34:01.426Z,6.17
2023-03-05T02:36:29.875Z,5.08
2023-03-05T02:38:59.203Z,6.35
2023-03-05T02:41:27.398Z,5.14
2023-03-05T02:43:57.390Z,6.79
2023-03-05T02:46:25.163Z,5.71
2023-03-05T02:48:52.792Z,4.95
2023-03-05T02:51:20.573Z,4.63
2023-03-05T02:53:49.017Z,4.81
2023-03-05T02:56:18.701Z,5.58
2023-03-05T02:58:46.276Z,5.42
2023-03-05T03:01:14.170Z,5.67
2023-03-05T03:03:41.888Z,5.94
2023-03-05T03:06:10.341Z,4.93
2023-03-05T03:08:38.007Z,5.64
2023-03-05T03:11:06.804Z,5.25
2023-03-05T03:13:35.744Z,4.76
2023-03-05T03:16:03.889Z,5.15
2023-03-05T03:18:31.505Z,5.54
2023-03-05T03:20:59.187Z,5.29
2023-03-05T03:23:26.807Z,4.69
2023-03-05T03:25:54.423Z,4.81
2023-03-05T03:28:22.062Z,4.96
2023-03-05T03:30:51.151Z,4.62
2023-03-05T03:33:18.860Z,5.38
2023-03-05T03:35:46.646Z,4.52
2023-03-05T03:38:14.480Z,4.80
2023-03-05T03:40:42.558Z,4.95
2023-03-05T03:43:10.146Z,4.74
2023-03-05T03:45:41.231Z,5.13
2023-03-05T03:48:10.254Z,5.16
2023-03-05T03:50:39.436Z,5.41
2023-03-05T03:53:07.178Z,5.25
2023-03-05T03:55:35.027Z,4.80
2023-03-05T03:58:03.337Z,6.17
2023-03-05T04:00:31.017Z,6.03
2023-03-05T04:02:58.660Z,4.80
2023-03-05T04:05:27.722Z,4.41
2023-03-05T04:07:55.545Z,4.92
2023-03-05T04:10:23.214Z,4.92
2023-03-05T04:12:50.832Z,4.06
2023-03-05T04:15:18.415Z,3.64
2023-03-05T04:17:46.039Z,4.88
2023-03-05T04:20:14.059Z,4.72
2023-03-05T04:22:43.062Z,4.06
2023-03-05T04:25:11.185Z,3.99
2023-03-05T04:27:40.204Z,3.83
2023-03-05T04:30:08.923Z,4.79
2023-03-05T04:32:36.645Z,4.12
2023-03-05T04:35:04.470Z,4.50
2023-03-05T04:37:32.064Z,3.88
2023-03-05T04:40:01.076Z,4.38
2023-03-05T04:42:28.711Z,3.75
2023-03-05T04:44:56.331Z,4.72
2023-03-05T04:47:24.089Z,4.25
2023-03-05T04:49:51.842Z,3.53
2023-03-05T04:52:19.450Z,4.26
2023-03-05T04:54:47.083Z,4.12
2023-03-05T04:57:16.008Z,3.93
2023-03-05T04:59:43.673Z,4.90
2023-03-05T05:02:11.323Z,4.73
2023-03-05T05:04:39.141Z,4.47
2023-03-05T05:07:07.601Z,4.30
2023-03-05T05:09:36.025Z,3.51
2023-03-05T05:12:03.688Z,4.92
2023-03-05T05:14:32.706Z,3.99
2023-03-05T05:17:04.962Z,4.51
2023-03-05T05:19:32.604Z,4.24
2023-03-05T05:22:00.365Z,4.44
2023-03-05T05:24:28.034Z,4.03
2023-03-05T05:26:55.854Z,4.27
2023-03-05T05:29:23.841Z,4.19
2023-03-05T05:31:54.132Z,4.23
2023-03-05T05:34:21.929Z,4.10
2023-03-05T05:36:49.528Z,4.10
2023-03-05T05:39:19.016Z,4.35
2023-03-05T05:41:47.770Z,4.49
2023-03-05T05:44:15.453Z,4.05
2023-03-05T05:46:43.062Z,5.83
2023-03-05T05:49:12.125Z,4.42
2023-03-05T05:51:39.770Z,5.29
2023-03-05T05:54:07.421Z,5.36
2023-03-05T05:56:35.071Z,6.01
2023-03-05T05:59:02.777Z,5.02
2023-03-05T06:01:31.051Z,4.55
2023-03-05T06:03:58.934Z,5.44
2023-03-05T06:06:28.466Z,4.52
2023-03-05T06:08:56.360Z,5.26
2023-03-05T06:11:23.961Z,5.65
2023-03-05T06:13:51.811Z,5.28
2023-03-05T06:16:20.289Z,4.72
2023-03-05T06:18:48.141Z,5.65
2023-03-05T06:21:16.373Z,4.49
2023-03-05T06:23:45.558Z,4.79
2023-03-05T06:26:13.625Z,4.78
2023-03-05T06:28:41.433Z,5.33
2023-03-05T06:31:10.417Z,4.68
2023-03-05T06:33:38.141Z,5.19
2023-03-05T06:36:06.125Z,5.33
2023-03-05T06:38:34.107Z,5.43
2023-03-05T06:41:05.543Z,4.66
2023-03-05T06:43:35.519Z,5.30
2023-03-05T06:46:04.390Z,5.21
2023-03-05T06:48:32.144Z,5.56
2023-03-05T06:50:59.774Z,5.00
2023-03-05T06:53:27.435Z,5.47
2023-03-05T06:55:55.241Z,5.98
2023-03-05T06:58:24.315Z,5.16
2023-03-05T07:00:52.022Z,5.25
2023-03-05T07:03:19.859Z,4.63
2023-03-05T07:05:47.626Z,5.85
2023-03-05T07:08:15.230Z,4.83
2023-03-05T07:10:43.572Z,5.15
2023-03-05T07:13:11.456Z,5.38
2023-03-05T07:15:40.841Z,6.09
2023-03-05T07:18:08.485Z,6.16
2023-03-05T07:20:36.400Z,6.49
2023-03-05T07:23:04.184Z,7.41
2023-03-05T07:25:32.087Z,6.99
2023-03-05T07:27:59.721Z,5.91
2023-03-05T07:30:27.342Z,6.30
2023-03-05T07:32:56.373Z,6.05
2023-03-05T07:35:24.491Z,6.25
2023-03-05T07:37:52.317Z,5.82
2023-03-05T07:40:20.143Z,6.24
2023-03-05T07:42:47.816Z,6.86
2023-03-05T07:45:24.414Z,7.05
2023-03-05T07:47:52.662Z,6.15
2023-03-05T07:50:21.730Z,6.02
2023-03-05T07:52:49.417Z,6.75
2023-03-05T07:55:17.176Z,7.41
2023-03-05T07:57:44.821Z,7.28
2023-03-05T08:00:13.018Z,5.70
2023-03-05T08:02:40.678Z,6.39
2023-03-05T08:05:08.777Z,6.31
2023-03-05T08:07:37.749Z,5.52
2023-03-05T08:10:05.793Z,7.06
2023-03-05T08:12:33.383Z,6.65
2023-03-05T08:15:01.453Z,6.12
2023-03-05T08:17:29.152Z,5.73
2023-03-05T08:20:00.077Z,6.05
2023-03-05T08:22:27.689Z,7.69
2023-03-05T08:24:56.667Z,6.92
2023-03-05T08:27:24.572Z,6.25
2023-03-05T08:29:52.187Z,6.62
2023-03-05T08:32:19.854Z,6.94
2023-03-05T08:34:47.425Z,6.41
2023-03-05T08:37:15.028Z,7.37
2023-03-05T08:39:42.653Z,9.34
2023-03-05T08:42:11.632Z,7.48
2023-03-05T08:44:39.290Z,8.54
2023-03-05T08:47:07.053Z,8.05
2023-03-05T08:49:34.728Z,8.79
2023-03-05T08:52:02.313Z,7.56
2023-03-05T08:54:29.902Z,7.90
2023-03-05T08:56:57.485Z,7.42
2023-03-05T08:59:26.425Z,6.60
2023-03-05T09:01:54.129Z,7.23
2023-03-05T09:04:21.759Z,7.01
2023-03-05T09:06:49.372Z,8.15
2023-03-05T09:09:17.137Z,9.44
2023-03-05T09:11:44.806Z,8.39
2023-03-05T09:14:12.426Z,7.99
2023-03-05T09:16:41.750Z,8.15
2023-03-05T09:19:10.676Z,8.67
2023-03-05T09:21:38.346Z,7.20
2023-03-05T09:24:06.094Z,7.22
2023-03-05T09:26:33.683Z,7.47
2023-03-05T09:29:01.243Z,7.92
2023-03-05T09:31:28.927Z,6.98
2023-03-05T09:33:58.048Z,6.55
2023-03-05T09:36:26.945Z,7.97
2023-03-05T09:38:54.742Z,7.22
2023-03-05T09:41:27.457Z,6.80
2023-03-05T09:43:56.616Z,7.84
2023-03-05T09:46:32.599Z,7.67
2023-03-05T09:49:04.305Z,8.74
2023-03-05T09:51:32.891Z,6.96
2023-03-05T09:54:03.028Z,7.44
2023-03-05T09:56:32.070Z,6.83
2023-03-05T09:59:01.211Z,7.60
2023-03-05T10:01:30.535Z,7.67
2023-03-05T10:03:58.625Z,9.02
2023-03-05T10:06:28.203Z,9.73
2023-03-05T10:08:56.749Z,11.27
2023-03-05T10:11:28.881Z,9.57
2023-03-05T10:13:56.493Z,10.00
2023-03-05T10:16:30.820Z,8.67
2023-03-05T10:18:58.928Z,6.83
2023-03-05T10:21:30.596Z,8.30
2023-03-05T10:24:02.186Z,8.33
2023-03-05T10:26:44.688Z,7.62
2023-03-05T10:29:21.670Z,8.63
2023-03-05T10:31:52.674Z,9.13
2023-03-05T10:34:33.714Z,9.02
2023-03-05T10:37:06.121Z,7.55
2023-03-05T10:39:51.454Z,8.60
2023-03-05T10:42:21.527Z,9.82
2023-03-05T10:44:50.131Z,9.81
2023-03-05T10:47:18.998Z,7.95
2023-03-05T10:49:49.521Z,8.07
2023-03-05T10:52:19.777Z,8.56
2023-03-05T10:54:47.378Z,9.31
2023-03-05T10:57:17.242Z,9.13
2023-03-05T10:59:45.696Z,8.50
2023-03-05T11:02:13.725Z,8.69
2023-03-05T11:04:41.663Z,7.29
2023-03-05T11:07:14.357Z,8.39
2023-03-05T11:09:43.320Z,9.17
2023-03-05T11:12:14.964Z,9.15
2023-03-05T11:14:43.861Z,7.83
2023-03-05T11:17:25.191Z,7.64
2023-03-05T11:19:52.821Z,7.77
2023-03-05T11:22:21.536Z,8.82
2023-03-05T11:25:06.005Z,7.82
2023-03-05T11:27:35.491Z,8.76
2023-03-05T11:30:03.441Z,8.25
2023-03-05T11:32:31.572Z,9.32
2023-03-05T11:34:59.250Z,8.41
2023-03-05T11:37:27.813Z,7.33
2023-03-05T11:40:14.229Z,6.78
2023-03-05T11:42:43.257Z,6.55
2023-03-05T11:45:16.072Z,6.99
2023-03-05T11:47:44.189Z,7.54
2023-03-05T11:50:13.924Z,6.85
2023-03-05T11:52:43.262Z,7.65
2023-03-05T11:55:12.222Z,7.55
2023-03-05T11:57:41.797Z,8.02
2023-03-05T12:00:13.792Z,7.84
2023-03-05T12:02:41.438Z,8.76
2023-03-05T12:05:09.145Z,9.36
2023-03-05T12:07:37.186Z,7.20
2023-03-05T12:10:05.226Z,7.35
2023-03-05T12:12:36.176Z,5.64
2023-03-05T12:15:06.328Z,7.12
2023-03-05T12:17:36.105Z,6.24
2023-03-05T12:20:06.314Z,6.35
2023-03-05T12:22:34.735Z,6.87
2023-03-05T12:25:17.207Z,7.69
2023-03-05T12:27:44.909Z,8.28
2023-03-05T12:30:25.182Z,9.71
2023-03-05T12:32:54.759Z,12.82
2023-03-05T12:35:28.609Z,12.53
2023-03-05T12:38:26.738Z,11.50
2023-03-05T12:40:54.772Z,9.98
2023-03-05T12:43:29.133Z,9.64
2023-03-05T12:46:10.615Z,10.19
2023-03-05T12:48:46.145Z,9.51
2023-03-05T12:51:14.749Z,10.02
2023-03-05T12:53:42.538Z,10.13
2023-03-05T12:56:19.224Z,9.00
2023-03-05T12:58:47.199Z,11.13
2023-03-05T13:01:21.977Z,9.46
2023-03-05T13:03:51.734Z,10.72
2023-03-05T13:06:27.088Z,9.28
2023-03-05T13:08:58.887Z,10.04
2023-03-05T13:11:26.483Z,6.71
2023-03-05T13:13:54.576Z,6.41
2023-03-05T13:16:23.771Z,5.54
2023-03-05T13:18:52.863Z,6.58
2023-03-05T13:21:21.335Z,7.03
2023-03-05T13:23:57.532Z,8.65
2023-03-05T13:26:25.665Z,9.19
2023-03-05T13:29:10.349Z,10.01
2023-03-05T13:31:41.267Z,8.66
2023-03-05T13:34:11.961Z,8.19
2023-03-05T13:36:39.636Z,7.43
2023-03-05T13:39:07.547Z,6.79
2023-03-05T13:41:35.254Z,8.27
2023-03-05T13:44:03.346Z,9.11
2023-03-05T13:46:31.947Z,7.40
2023-03-05T13:49:00.233Z,8.04
2023-03-05T13:51:42.786Z,9.11
2023-03-05T13:54:13.242Z,8.43
2023-03-05T13:56:49.327Z,8.27
2023-03-05T13:59:20.528Z,7.68
2023-03-05T14:01:49.325Z,7.85
2023-03-05T14:04:19.867Z,8.46
2023-03-05T14:06:48.408Z,9.21
2023-03-05T14:09:21.311Z,7.69
2023-03-05T14:11:55.821Z,7.49
2023-03-05T14:14:23.489Z,8.20
2023-03-05T14:16:51.120Z,8.77
2023-03-05T14:19:35.813Z,8.02
2023-03-05T14:22:03.592Z,8.29
2023-03-05T14:24:33.298Z,8.02
2023-03-05T14:27:03.298Z,9.57
2023-03-05T14:29:30.944Z,10.15
2023-03-05T14:31:59.208Z,8.55
2023-03-05T14:34:27.714Z,8.86
2023-03-05T14:36:55.747Z,8.56
2023-03-05T14:39:27.114Z,7.07
2023-03-05T14:41:56.081Z,7.45
2023-03-05T14:44:25.413Z,7.39
2023-03-05T14:46:53.027Z,7.94
2023-03-05T14:49:20.611Z,7.73
2023-03-05T14:51:48.230Z,7.72
2023-03-05T14:54:19.479Z,7.34
2023-03-05T14:56:47.972Z,7.53
2023-03-05T14:59:17.027Z,7.15
2023-03-05T15:01:44.974Z,7.66
2023-03-05T15:04:18.586Z,7.59
2023-03-05T15:06:48.186Z,9.00
2023-03-05T15:09:17.764Z,8.90
2023-03-05T15:11:45.347Z,7.94
2023-03-05T15:14:13.045Z,7.01
2023-03-05T15:16:43.291Z,8.11
2023-03-05T15:19:11.652Z,7.29
2023-03-05T15:21:39.211Z,8.09
2023-03-05T15:24:07.100Z,8.10
2023-03-05T15:26:52.679Z,8.93
2023-03-05T15:29:20.775Z,8.15
2023-03-05T15:32:17.579Z,7.03
2023-03-05T15:34:46.771Z,7.75
2023-03-05T15:37:16.853Z,7.92
2023-03-05T15:39:44.481Z,7.81
2023-03-05T15:42:12.109Z,7.75
2023-03-05T15:44:40.291Z,6.91
2023-03-05T15:47:08.025Z,7.14
2023-03-05T15:49:35.705Z,7.71
2023-03-05T15:52:05.000Z,7.31
2023-03-05T15:54:32.700Z,6.94
2023-03-05T15:57:00.401Z,7.07
2023-03-05T15:59:28.047Z,7.57
2023-03-05T16:01:55.847Z,8.06
2023-03-05T16:04:23.516Z,8.08
2023-03-05T16:06:51.117Z,7.46
2023-03-05T16:09:20.101Z,8.35
2023-03-05T16:11:49.207Z,8.29
2023-03-05T16:14:17.332Z,7.51
2023-03-05T16:16:45.125Z,7.53
2023-03-05T16:19:13.353Z,8.51
2023-03-05T16:21:41.032Z,7.63
2023-03-05T16:24:08.741Z,6.77
2023-03-05T16:26:38.007Z,7.09
2023-03-05T16:29:05.875Z,7.55
2023-03-05T16:31:34.704Z,6.64
2023-03-05T16:34:02.534Z,6.81
2023-03-05T16:36:30.938Z,6.77
2023-03-05T16:38:59.162Z,7.27
2023-03-05T16:41:27.135Z,6.62
2023-03-05T16:43:57.424Z,8.16
2023-03-05T16:46:25.430Z,7.47
2023-03-05T16:48:53.190Z,7.62
2023-03-05T16:51:21.002Z,6.71
2023-03-05T16:53:48.753Z,7.94
2023-03-05T16:56:16.480Z,8.99
2023-03-05T16:58:44.052Z,7.30
2023-03-05T17:01:13.665Z,7.15
2023-03-05T17:03:41.688Z,6.19
2023-03-05T17:06:09.898Z,6.91
2023-03-05T17:08:37.547Z,6.88
2023-03-05T17:11:05.241Z,6.89
2023-03-05T17:13:32.880Z,6.53
2023-03-05T17:16:00.657Z,6.74
2023-03-05T17:22:16.027Z,6.62
2023-03-05T17:28:45.901Z,7.27
2023-03-05T17:31:14.348Z,7.30
2023-03-05T17:33:42.660Z,6.66
2023-03-05T17:36:13.831Z,7.59
2023-03-05T17:38:42.761Z,7.14
2023-03-05T17:41:10.396Z,6.50
2023-03-05T17:43:38.057Z,6.17
2023-03-05T17:46:05.914Z,6.08
2023-03-05T17:48:34.078Z,6.56
2023-03-05T17:51:01.938Z,6.98
2023-03-05T17:53:29.510Z,6.77
2023-03-05T17:55:58.509Z,7.43
2023-03-05T17:58:26.188Z,7.72
2023-03-05T18:00:53.895Z,7.57
2023-03-05T18:03:21.496Z,6.65
2023-03-05T18:05:49.054Z,8.63
2023-03-05T18:08:16.736Z,6.89
2023-03-05T18:10:44.355Z,7.12
2023-03-05T18:13:13.347Z,7.68
2023-03-05T18:15:47.222Z,7.20
2023-03-05T18:18:14.912Z,8.20
2023-03-05T18:20:42.768Z,7.09
2023-03-05T18:23:10.491Z,6.55
2023-03-05T18:25:38.091Z,6.51
2023-03-05T18:28:06.421Z,6.61
2023-03-05T18:30:35.500Z,5.93
2023-03-05T18:33:03.273Z,5.74
2023-03-05T18:35:31.006Z,6.68
2023-03-05T18:37:58.682Z,7.25
2023-03-05T18:40:26.895Z,7.19
2023-03-05T18:42:54.500Z,6.75
2023-03-05T18:45:23.194Z,6.42
2023-03-05T18:47:54.221Z,7.58
2023-03-05T18:50:22.449Z,8.18
2023-03-05T18:52:50.093Z,7.89
2023-03-05T18:55:17.980Z,6.97
2023-03-05T18:57:45.595Z,6.32
2023-03-05T19:00:14.395Z,6.70
2023-03-05T19:02:42.056Z,6.70
2023-03-05T19:05:11.312Z,6.90
2023-03-05T19:07:39.036Z,7.50
2023-03-05T19:10:09.710Z,7.30
2023-03-05T19:12:45.268Z,6.81
2023-03-05T19:15:13.484Z,7.26
2023-03-05T19:17:41.314Z,7.44
2023-03-05T19:20:11.067Z,7.45
2023-03-05T19:22:40.109Z,8.45
2023-03-05T19:25:08.264Z,7.55
2023-03-05T19:27:35.981Z,7.70
2023-03-05T19:30:03.836Z,7.18
2023-03-05T19:32:31.537Z,7.72
2023-03-05T19:34:59.334Z,7.98
2023-03-05T19:37:26.936Z,7.03
2023-03-05T19:39:55.883Z,7.47
2023-03-05T19:42:23.478Z,8.17
2023-03-05T19:44:51.214Z,8.20
2023-03-05T19:47:18.836Z,7.21
2023-03-05T19:49:46.514Z,7.61
2023-03-05T19:52:14.467Z,7.62
2023-03-05T19:54:42.203Z,7.52
2023-03-05T19:57:11.178Z,8.29
2023-03-05T19:59:38.778Z,7.32
2023-03-05T20:02:07.547Z,7.74
2023-03-05T20:04:37.193Z,7.06
2023-03-05T20:07:07.640Z,7.27
2023-03-05T20:09:35.603Z,6.84
2023-03-05T20:12:05.530Z,6.68
2023-03-05T20:14:34.540Z,6.09
2023-03-05T20:17:02.185Z,7.07
2023-03-05T20:19:29.861Z,6.79
2023-03-05T20:21:57.500Z,6.17
2023-03-05T20:24:26.466Z,6.98
2023-03-05T20:26:54.136Z,6.70
2023-03-05T20:29:21.735Z,7.10
2023-03-05T20:31:50.891Z,6.29
2023-03-05T20:34:19.472Z,7.11
2023-03-05T20:36:52.458Z,7.63
2023-03-05T20:39:20.116Z,8.51
2023-03-05T20:41:48.435Z,6.30
2023-03-05T20:44:16.488Z,7.31
2023-03-05T20:46:51.905Z,6.51
2023-03-05T20:49:20.877Z,7.55
2023-03-05T20:51:49.138Z,7.46
2023-03-05T20:54:16.846Z,6.90
2023-03-05T20:56:44.501Z,6.71
2023-03-05T20:59:12.534Z,6.88
2023-03-05T21:01:40.864Z,7.15
2023-03-05T21:04:08.782Z,7.98
2023-03-05T21:06:37.924Z,8.16
2023-03-05T21:09:05.590Z,8.39
2023-03-05T21:11:35.499Z,7.55
2023-03-05T21:14:03.127Z,7.64
2023-03-05T21:16:30.838Z,6.48
2023-03-05T21:18:58.446Z,7.17
2023-03-05T21:21:26.209Z,8.11
2023-03-05T21:23:55.356Z,8.13
2023-03-05T21:26:23.010Z,6.44
2023-03-05T21:28:50.638Z,7.14
2023-03-05T21:31:19.299Z,7.26
2023-03-05T21:33:46.914Z,8.10
2023-03-05T21:36:18.848Z,8.65
2023-03-05T21:38:46.862Z,7.94
2023-03-05T21:41:16.032Z,6.99
2023-03-05T21:43:43.855Z,7.77
2023-03-05T21:46:11.585Z,7.30
2023-03-05T21:48:39.339Z,7.17
2023-03-05T21:51:07.724Z,6.59
2023-03-05T21:53:35.461Z,7.12
2023-03-05T21:56:20.904Z,7.09
2023-03-05T21:58:50.290Z,7.95
2023-03-05T22:01:19.308Z,7.26
2023-03-05T22:03:47.093Z,6.37
2023-03-05T22:06:15.438Z,7.04
2023-03-05T22:08:43.113Z,7.69
2023-03-05T22:11:11.149Z,8.21
2023-03-05T22:13:39.019Z,6.43
2023-03-05T22:16:09.157Z,7.12
2023-03-05T22:18:37.018Z,7.60
2023-03-05T22:21:04.815Z,7.54
2023-03-05T22:23:34.024Z,7.30
2023-03-05T22:26:02.440Z,7.48
2023-03-05T22:28:30.082Z,7.07
2023-03-05T22:30:57.760Z,7.11
2023-03-05T22:33:26.949Z,6.38
2023-03-05T22:35:54.758Z,6.09
2023-03-05T22:38:22.738Z,6.27
2023-03-05T22:40:50.497Z,6.86
2023-03-05T22:43:18.513Z,6.27
2023-03-05T22:45:46.302Z,6.89
2023-03-05T22:48:13.969Z,7.51
2023-03-05T22:50:43.837Z,6.82
2023-03-05T22:53:12.085Z,7.99
2023-03-05T22:55:40.046Z,7.79
2023-03-05T22:58:07.757Z,7.08
2023-03-05T23:00:35.407Z,7.65
2023-03-05T23:03:03.124Z,7.75
2023-03-05T23:05:30.783Z,7.33
2023-03-05T23:07:59.743Z,7.68
2023-03-05T23:10:28.563Z,8.25
2023-03-05T23:12:57.401Z,7.70
2023-03-05T23:15:25.733Z,7.35
2023-03-05T23:17:53.484Z,7.34
2023-03-05T23:20:21.639Z,7.45
2023-03-05T23:22:49.437Z,7.84
2023-03-05T23:25:18.513Z,7.97
2023-03-05T23:27:46.156Z,7.87
2023-03-05T23:30:19.665Z,7.46
2023-03-05T23:32:48.552Z,7.67
2023-03-05T23:35:16.899Z,7.79
2023-03-05T23:37:44.452Z,7.35
2023-03-05T23:40:14.769Z,7.45
2023-03-05T23:42:43.994Z,7.04
2023-03-05T23:45:12.228Z,7.37
2023-03-05T23:47:40.076Z,7.39
2023-03-05T23:50:08.523Z,7.35
2023-03-05T23:52:36.189Z,7.55
2023-03-05T23:55:04.102Z,6.95
2023-03-05T23:57:31.953Z,7.53
